createdAt,value
2023-08-31T00:05:22.005Z,100.00
2023-08-31T00:12:56.250Z,100.00
2023-08-31T00:20:32.585Z,100.00
2023-08-31T00:28:10.591Z,100.00
2023-08-31T00:35:47.403Z,100.00
2023-08-31T00:43:21.923Z,100.00
2023-08-31T00:50:58.267Z,100.00
2023-08-31T00:58:33.162Z,100.00
2023-08-31T01:06:12.436Z,100.00
2023-08-31T01:13:52.148Z,100.00
2023-08-31T01:21:37.260Z,100.00
2023-08-31T01:29:13.620Z,100.00
2023-08-31T01:36:55.436Z,100.00
2023-08-31T01:44:33.453Z,100.00
2023-08-31T01:52:09.008Z,100.00
2023-08-31T01:59:44.777Z,100.00
2023-08-31T02:07:19.120Z,100.00
2023-08-31T02:14:54.832Z,100.00
2023-08-31T02:22:29.678Z,100.00
2023-08-31T02:30:06.641Z,100.00
2023-08-31T02:37:40.749Z,100.00
2023-08-31T02:45:17.508Z,100.00
2023-08-31T02:52:51.700Z,100.00
2023-08-31T03:00:28.275Z,100.00
2023-08-31T03:08:02.405Z,100.00
2023-08-31T03:15:38.272Z,100.00
2023-08-31T03:23:13.632Z,100.00
2023-08-31T03:30:57.271Z,100.00
2023-08-31T03:38:31.619Z,100.00
2023-08-31T03:46:07.273Z,100.00
2023-08-31T03:53:42.078Z,100.00
2023-08-31T04:01:19.413Z,100.00
2023-08-31T04:08:53.854Z,100.00
2023-08-31T04:16:31.154Z,100.00
2023-08-31T04:24:07.222Z,100.00
2023-08-31T04:31:44.426Z,100.00
2023-08-31T04:39:18.669Z,100.00
2023-08-31T04:46:54.273Z,100.00
2023-08-31T04:54:28.716Z,100.00
2023-08-31T05:02:06.583Z,100.00
2023-08-31T05:09:40.841Z,100.00
2023-08-31T05:17:16.892Z,100.00
2023-08-31T05:24:50.934Z,100.00
2023-08-31T05:32:26.705Z,100.00
2023-08-31T05:40:01.456Z,100.00
2023-08-31T05:47:37.310Z,100.00
2023-08-31T05:55:12.188Z,100.00
2023-08-31T06:02:47.796Z,100.00
2023-08-31T06:10:24.872Z,100.00
2023-08-31T06:18:03.343Z,100.00
2023-08-31T06:25:37.719Z,100.00
2023-08-31T06:33:14.457Z,100.00
2023-08-31T06:40:50.321Z,100.00
2023-08-31T06:48:26.555Z,100.00
2023-08-31T06:56:01.121Z,100.00
2023-08-31T07:03:37.190Z,100.00
2023-08-31T07:11:11.965Z,100.00
2023-08-31T07:18:48.306Z,100.00
2023-08-31T07:26:24.225Z,100.00
2023-08-31T07:34:00.317Z,100.00
2023-08-31T07:41:34.964Z,100.00
2023-08-31T07:49:11.566Z,100.00
2023-08-31T07:56:49.614Z,100.00
2023-08-31T08:04:28.519Z,100.00
2023-08-31T08:12:04.120Z,94.62
2023-08-31T08:19:39.977Z,88.75
2023-08-31T08:27:15.267Z,84.38
2023-08-31T08:34:52.627Z,76.96
2023-08-31T08:42:27.586Z,78.80
2023-08-31T08:50:04.572Z,75.68
2023-08-31T08:57:40.679Z,71.05
2023-08-31T09:05:18.137Z,69.74
2023-08-31T09:12:55.948Z,67.34
2023-08-31T09:20:32.211Z,65.75
2023-08-31T09:28:07.276Z,65.27
2023-08-31T09:35:43.630Z,60.99
2023-08-31T09:43:26.699Z,58.90
2023-08-31T09:51:08.419Z,58.26
2023-08-31T09:58:42.896Z,54.01
2023-08-31T10:06:18.892Z,55.87
2023-08-31T10:13:54.963Z,55.25
2023-08-31T10:21:32.120Z,66.56
2023-08-31T10:29:07.535Z,75.37
2023-08-31T10:36:45.637Z,83.75
2023-08-31T10:44:23.557Z,88.14
2023-08-31T10:52:28.460Z,93.16
2023-08-31T11:00:13.354Z,97.75
2023-08-31T11:07:50.477Z,93.45
2023-08-31T11:15:31.460Z,90.94
2023-08-31T11:23:07.710Z,79.24
2023-08-31T11:30:51.898Z,76.87
2023-08-31T11:38:30.075Z,76.13
2023-08-31T11:46:09.095Z,68.19
2023-08-31T11:53:45.291Z,74.56
2023-08-31T12:01:22.804Z,75.86
2023-08-31T12:08:59.045Z,80.94
2023-08-31T12:16:37.651Z,73.16
2023-08-31T12:24:14.011Z,73.95
2023-08-31T12:31:48.403Z,73.82
2023-08-31T12:39:24.445Z,70.49
2023-08-31T12:46:58.334Z,70.31
2023-08-31T12:54:34.169Z,66.32
2023-08-31T13:02:12.710Z,61.74
2023-08-31T13:09:49.097Z,59.23
2023-08-31T13:17:24.803Z,60.65
2023-08-31T13:25:01.239Z,58.89
2023-08-31T13:32:36.028Z,58.39
2023-08-31T13:40:12.937Z,66.77
2023-08-31T13:47:50.553Z,77.79
2023-08-31T13:55:28.168Z,93.20
2023-08-31T14:03:04.654Z,97.29
2023-08-31T14:10:43.261Z,94.10
2023-08-31T14:18:18.299Z,84.75
2023-08-31T14:25:54.348Z,81.49
2023-08-31T14:33:29.800Z,82.05
2023-08-31T14:41:08.644Z,72.25
2023-08-31T14:48:43.888Z,68.18
2023-08-31T14:56:20.054Z,63.42
2023-08-31T15:03:54.209Z,67.13
2023-08-31T15:11:30.683Z,71.18
2023-08-31T15:19:04.878Z,69.00
2023-08-31T15:26:41.243Z,68.23
2023-08-31T15:34:16.144Z,65.07
2023-08-31T15:41:59.631Z,61.00
2023-08-31T15:49:33.899Z,60.95
2023-08-31T15:57:13.081Z,61.84
2023-08-31T16:04:49.727Z,63.08
2023-08-31T16:12:25.810Z,64.22
2023-08-31T16:20:00.359Z,66.48
2023-08-31T16:27:36.881Z,67.44
2023-08-31T16:35:18.937Z,69.88
2023-08-31T16:42:55.432Z,71.65
2023-08-31T16:50:33.475Z,85.26
2023-08-31T16:58:09.140Z,96.91
2023-08-31T17:05:43.790Z,96.45
2023-08-31T17:13:20.419Z,97.52
2023-08-31T17:21:00.778Z,95.42
2023-08-31T17:28:37.020Z,94.23
2023-08-31T17:36:12.402Z,91.04
2023-08-31T17:43:49.031Z,91.07
2023-08-31T17:51:24.374Z,99.21
2023-08-31T17:59:00.672Z,100.00
2023-08-31T18:06:36.377Z,100.00
2023-08-31T18:14:12.625Z,100.00
2023-08-31T18:21:47.609Z,100.00
2023-08-31T18:29:23.298Z,100.00
2023-08-31T18:36:58.703Z,100.00
2023-08-31T18:44:34.899Z,100.00
2023-08-31T18:52:12.760Z,100.00
2023-08-31T18:59:58.272Z,100.00
2023-08-31T19:07:36.071Z,100.00
2023-08-31T19:15:13.214Z,100.00
2023-08-31T19:22:48.075Z,100.00
2023-08-31T19:30:24.287Z,100.00
2023-08-31T19:37:58.561Z,100.00
2023-08-31T19:45:35.189Z,100.00
2023-08-31T19:53:10.616Z,100.00
2023-08-31T20:00:46.770Z,100.00
2023-08-31T20:08:22.038Z,100.00
2023-08-31T20:16:04.913Z,100.00
2023-08-31T20:23:39.319Z,100.00
2023-08-31T20:31:17.277Z,100.00
2023-08-31T20:38:53.626Z,100.00
2023-08-31T20:46:31.068Z,100.00
2023-08-31T20:54:06.147Z,100.00
2023-08-31T21:01:42.952Z,100.00
2023-08-31T21:09:17.906Z,100.00
2023-08-31T21:16:54.444Z,100.00
2023-08-31T21:24:28.658Z,100.00
2023-08-31T21:32:05.634Z,100.00
2023-08-31T21:39:40.111Z,100.00
2023-08-31T21:47:16.083Z,100.00
2023-08-31T21:54:50.240Z,100.00
2023-08-31T22:02:25.927Z,100.00
2023-08-31T22:10:04.815Z,100.00
2023-08-31T22:17:41.712Z,100.00
2023-08-31T22:25:17.317Z,100.00
2023-08-31T22:32:53.541Z,100.00
2023-08-31T22:40:28.471Z,100.00
2023-08-31T22:48:04.199Z,100.00
2023-08-31T22:55:39.055Z,100.00
2023-08-31T23:03:17.039Z,100.00
2023-08-31T23:10:59.288Z,100.00
2023-08-31T23:18:35.595Z,100.00
2023-08-31T23:26:10.135Z,100.00
2023-08-31T23:33:46.054Z,100.00
2023-08-31T23:41:20.963Z,100.00
2023-08-31T23:48:56.276Z,100.00
2023-08-31T23:56:31.428Z,100.00
